TAF Text Data
IDs:
Format:
Raw Decoded Include METAR

Data at: 2257 UTC 02 Aug 2021

KCSV 021720Z 0218/0318 02006KT 6SM HZ SCT050
  FM030600 00000KT 4SM BR BCFG SKC
  FM031400 01006KT 6SM HZ BKN100